createdAt,value
2023-06-05T00:01:16.858Z,53.73
2023-06-05T00:03:46.241Z,53.51
2023-06-05T00:06:16.258Z,53.24
2023-06-05T00:08:45.437Z,53.58
2023-06-05T00:11:14.771Z,53.69
2023-06-05T00:13:43.802Z,53.88
2023-06-05T00:16:16.421Z,54.43
2023-06-05T00:18:46.869Z,54.23
2023-06-05T00:21:20.415Z,54.76
2023-06-05T00:23:49.538Z,55.03
2023-06-05T00:26:19.456Z,54.91
2023-06-05T00:28:49.938Z,54.95
2023-06-05T00:31:18.628Z,55.59
2023-06-05T00:33:47.942Z,55.80
2023-06-05T00:36:20.174Z,55.93
2023-06-05T00:38:49.351Z,56.60
2023-06-05T00:41:18.794Z,56.88
2023-06-05T00:43:45.943Z,57.04
2023-06-05T00:46:15.608Z,57.20
2023-06-05T00:48:43.688Z,57.59
2023-06-05T00:51:15.780Z,58.09
2023-06-05T00:53:48.625Z,58.29
2023-06-05T00:56:23.615Z,58.83
2023-06-05T00:58:56.437Z,58.57
2023-06-05T01:01:25.393Z,59.05
2023-06-05T01:03:55.049Z,59.40
2023-06-05T01:06:24.707Z,59.72
2023-06-05T01:08:51.964Z,59.95
2023-06-05T01:11:43.980Z,60.59
2023-06-05T01:14:21.719Z,60.78
2023-06-05T01:16:55.878Z,60.89
2023-06-05T01:19:26.392Z,60.96
2023-06-05T01:21:59.195Z,61.14
2023-06-05T01:24:34.112Z,61.40
2023-06-05T01:27:08.828Z,61.66
2023-06-05T01:29:38.960Z,61.31
2023-06-05T01:32:20.165Z,61.84
2023-06-05T01:34:54.732Z,61.68
2023-06-05T01:37:27.653Z,61.82
2023-06-05T01:40:02.335Z,61.80
2023-06-05T01:42:32.786Z,61.97
2023-06-05T01:45:04.003Z,62.27
2023-06-05T01:47:41.130Z,62.23
2023-06-05T01:50:14.050Z,62.07
2023-06-05T01:52:46.362Z,62.31
2023-06-05T01:55:21.557Z,62.58
2023-06-05T01:57:51.813Z,62.58
2023-06-05T02:00:21.378Z,62.65
2023-06-05T02:02:51.588Z,62.67
2023-06-05T02:05:23.828Z,62.45
2023-06-05T02:07:59.499Z,62.59
2023-06-05T02:10:26.531Z,62.39
2023-06-05T02:12:55.898Z,62.38
2023-06-05T02:15:25.453Z,62.58
2023-06-05T02:17:54.992Z,62.83
2023-06-05T02:20:30.352Z,62.67
2023-06-05T02:23:06.366Z,62.91
2023-06-05T02:25:33.573Z,62.99
2023-06-05T02:28:02.721Z,62.85
2023-06-05T02:30:34.356Z,63.00
2023-06-05T02:33:06.141Z,63.43
2023-06-05T02:35:37.358Z,63.27
2023-06-05T02:38:13.989Z,63.64
2023-06-05T02:40:48.270Z,63.62
2023-06-05T02:43:18.731Z,63.65
2023-06-05T02:45:48.165Z,63.60
2023-06-05T02:48:17.613Z,63.66
2023-06-05T02:50:48.077Z,63.57
2023-06-05T02:53:19.851Z,63.74
2023-06-05T02:55:49.113Z,63.73
2023-06-05T02:58:22.952Z,63.44
2023-06-05T03:01:03.368Z,63.41
2023-06-05T03:03:39.073Z,63.50
2023-06-05T03:06:08.619Z,63.84
2023-06-05T03:08:44.056Z,64.17
2023-06-05T03:11:14.987Z,63.73
2023-06-05T03:13:44.516Z,64.10
2023-06-05T03:16:12.073Z,64.20
2023-06-05T03:18:43.163Z,64.31
2023-06-05T03:21:11.637Z,64.36
2023-06-05T03:23:42.349Z,64.67
2023-06-05T03:26:14.215Z,64.67
2023-06-05T03:28:43.787Z,64.40
2023-06-05T03:31:13.286Z,64.69
2023-06-05T03:33:46.918Z,64.33
2023-06-05T03:36:19.822Z,64.90
2023-06-05T03:38:54.510Z,64.90
2023-06-05T03:41:29.485Z,64.69
2023-06-05T03:43:58.297Z,64.99
2023-06-05T03:46:31.149Z,64.99
2023-06-05T03:49:06.763Z,64.92
2023-06-05T03:51:40.941Z,65.01
2023-06-05T03:54:10.658Z,65.41
2023-06-05T03:56:44.622Z,65.38
2023-06-05T03:59:23.819Z,65.36
2023-06-05T04:02:01.146Z,65.49
2023-06-05T04:04:35.570Z,65.83
2023-06-05T04:07:04.849Z,65.84
2023-06-05T04:09:37.773Z,66.08
2023-06-05T04:12:06.576Z,66.54
2023-06-05T04:14:36.980Z,66.51
2023-06-05T04:17:07.441Z,66.94
2023-06-05T04:19:42.188Z,67.50
2023-06-05T04:22:14.009Z,67.52
2023-06-05T04:24:43.396Z,68.10
2023-06-05T04:27:18.355Z,67.76
2023-06-05T04:29:51.307Z,67.92
2023-06-05T04:32:19.190Z,68.02
2023-06-05T04:34:48.644Z,67.98
2023-06-05T04:37:22.438Z,68.13
2023-06-05T04:39:53.284Z,68.34
2023-06-05T04:42:25.182Z,68.40
2023-06-05T04:45:02.665Z,68.76
2023-06-05T04:47:33.593Z,68.73
2023-06-05T04:50:07.860Z,69.00
2023-06-05T04:52:42.736Z,69.14
2023-06-05T04:55:14.518Z,69.03
2023-06-05T04:57:44.559Z,69.35
2023-06-05T05:00:16.476Z,69.37
2023-06-05T05:02:47.961Z,69.55
2023-06-05T05:05:17.685Z,69.51
2023-06-05T05:07:51.840Z,69.51
2023-06-05T05:10:20.664Z,69.66
2023-06-05T05:12:49.735Z,69.65
2023-06-05T05:15:17.386Z,69.62
2023-06-05T05:17:44.290Z,69.66
2023-06-05T05:20:15.860Z,69.66
2023-06-05T05:22:50.367Z,70.04
2023-06-05T05:25:20.187Z,70.04
2023-06-05T05:27:54.475Z,69.83
2023-06-05T05:30:26.313Z,69.82
2023-06-05T05:32:58.291Z,69.82
2023-06-05T05:35:25.217Z,69.40
2023-06-05T05:37:57.027Z,69.31
2023-06-05T05:40:31.324Z,69.07
2023-06-05T05:43:00.764Z,69.05
2023-06-05T05:45:34.740Z,69.16
2023-06-05T05:48:08.877Z,69.31
2023-06-05T05:50:38.292Z,68.90
2023-06-05T05:53:05.187Z,69.06
2023-06-05T05:55:31.994Z,68.90
2023-06-05T05:58:01.609Z,68.71
2023-06-05T06:00:31.180Z,68.53
2023-06-05T06:02:58.536Z,68.71
2023-06-05T06:05:27.994Z,68.89
2023-06-05T06:07:57.327Z,68.48
2023-06-05T06:10:24.175Z,68.60
2023-06-05T06:12:55.686Z,68.45
2023-06-05T06:15:24.821Z,68.63
2023-06-05T06:17:51.799Z,68.07
2023-06-05T06:20:22.351Z,68.05
2023-06-05T06:22:56.019Z,68.05
2023-06-05T06:25:30.187Z,67.75
2023-06-05T06:28:02.763Z,67.91
2023-06-05T06:30:29.830Z,68.52
2023-06-05T06:33:05.485Z,67.97
2023-06-05T06:35:36.156Z,68.22
2023-06-05T06:38:07.580Z,68.20
2023-06-05T06:40:34.433Z,68.11
2023-06-05T06:43:01.281Z,68.03
2023-06-05T06:45:53.209Z,68.24
2023-06-05T06:48:24.989Z,68.18
2023-06-05T06:50:54.449Z,68.31
2023-06-05T06:53:23.761Z,68.00
2023-06-05T06:55:55.039Z,68.13
2023-06-05T06:58:25.509Z,67.91
2023-06-05T07:00:57.173Z,67.75
2023-06-05T07:03:24.975Z,68.33
2023-06-05T07:05:56.775Z,68.43
2023-06-05T07:08:23.598Z,68.15
2023-06-05T07:10:57.802Z,67.90
2023-06-05T07:13:29.428Z,68.18
2023-06-05T07:16:01.233Z,67.71
2023-06-05T07:18:33.059Z,67.86
2023-06-05T07:21:04.826Z,67.95
2023-06-05T07:23:34.740Z,67.59
2023-06-05T07:26:08.716Z,67.32
2023-06-05T07:28:40.185Z,67.47
2023-06-05T07:31:11.546Z,66.61
2023-06-05T07:33:43.702Z,66.91
2023-06-05T07:36:15.988Z,66.68
2023-06-05T07:38:43.708Z,66.76
2023-06-05T07:41:15.476Z,66.65
2023-06-05T07:43:44.546Z,66.13
2023-06-05T07:46:13.721Z,65.68
2023-06-05T07:48:40.529Z,65.59
2023-06-05T07:51:10.230Z,65.39
2023-06-05T07:53:46.610Z,64.83
2023-06-05T07:56:19.546Z,64.90
2023-06-05T07:58:47.840Z,64.60
2023-06-05T08:01:22.061Z,64.63
2023-06-05T08:03:51.579Z,64.38
2023-06-05T08:06:25.438Z,63.93
2023-06-05T08:08:54.819Z,63.84
2023-06-05T08:11:27.722Z,63.94
2023-06-05T08:13:59.339Z,63.56
2023-06-05T08:16:32.720Z,63.22
2023-06-05T08:19:03.934Z,64.00
2023-06-05T08:21:36.369Z,64.15
2023-06-05T08:24:05.914Z,63.66
2023-06-05T08:26:37.673Z,63.37
2023-06-05T08:29:09.256Z,62.80
2023-06-05T08:31:37.824Z,63.42
2023-06-05T08:34:06.773Z,63.24
2023-06-05T08:36:38.872Z,62.67
2023-06-05T08:39:10.844Z,62.76
2023-06-05T08:41:44.047Z,61.96
2023-06-05T08:44:14.113Z,61.91
2023-06-05T08:46:44.637Z,62.34
2023-06-05T08:49:18.659Z,61.86
2023-06-05T08:51:53.942Z,62.29
2023-06-05T08:54:21.919Z,61.85
2023-06-05T08:56:51.206Z,62.18
2023-06-05T08:59:26.097Z,62.16
2023-06-05T09:01:55.767Z,62.19
2023-06-05T09:04:31.488Z,61.99
2023-06-05T09:07:01.918Z,61.63
2023-06-05T09:09:28.779Z,61.25
2023-06-05T09:12:09.909Z,60.48
2023-06-05T09:14:37.106Z,60.78
2023-06-05T09:17:13.086Z,60.76
2023-06-05T09:19:48.444Z,60.50
2023-06-05T09:22:34.980Z,60.28
2023-06-05T09:25:04.921Z,60.37
2023-06-05T09:27:37.261Z,60.50
2023-06-05T09:30:08.393Z,59.88
2023-06-05T09:32:39.589Z,60.03
2023-06-05T09:35:09.335Z,59.73
2023-06-05T09:37:46.945Z,59.96
2023-06-05T09:40:18.375Z,59.25
2023-06-05T09:42:47.659Z,58.74
2023-06-05T09:45:16.766Z,58.32
2023-06-05T09:50:25.295Z,57.76
2023-06-05T09:52:58.020Z,57.36
2023-06-05T09:55:27.518Z,57.95
2023-06-05T09:58:03.132Z,58.14
2023-06-05T10:00:30.940Z,57.94
2023-06-05T10:03:03.431Z,56.51
2023-06-05T10:05:34.079Z,56.85
2023-06-05T10:08:01.021Z,57.44
2023-06-05T10:10:33.613Z,57.33
2023-06-05T10:13:03.017Z,56.90
2023-06-05T10:15:33.626Z,57.11
2023-06-05T10:18:03.453Z,57.04
2023-06-05T10:20:38.236Z,57.42
2023-06-05T10:23:08.074Z,56.16
2023-06-05T10:25:42.868Z,55.62
2023-06-05T10:28:42.448Z,56.53
2023-06-05T10:31:20.968Z,55.75
2023-06-05T10:34:05.711Z,53.77
2023-06-05T10:36:59.752Z,53.85
2023-06-05T10:39:32.594Z,54.63
2023-06-05T10:42:00.332Z,54.81
2023-06-05T10:44:47.130Z,53.74
2023-06-05T10:47:33.135Z,52.75
2023-06-05T10:50:19.233Z,51.74
2023-06-05T10:52:59.202Z,52.17
2023-06-05T10:55:44.052Z,51.90
2023-06-05T10:58:23.550Z,50.95
2023-06-05T11:01:19.401Z,51.32
2023-06-05T11:03:57.717Z,51.87
2023-06-05T11:06:29.550Z,52.58
2023-06-05T11:09:15.786Z,51.86
2023-06-05T11:12:10.914Z,51.54
2023-06-05T11:14:45.980Z,51.52
2023-06-05T11:17:39.381Z,49.28
2023-06-05T11:20:27.869Z,49.47
2023-06-05T11:22:57.158Z,49.39
2023-06-05T11:25:28.318Z,49.68
2023-06-05T11:28:10.490Z,50.55
2023-06-05T11:30:49.602Z,50.95
2023-06-05T11:33:24.869Z,50.68
2023-06-05T11:36:04.680Z,51.92
2023-06-05T11:38:36.885Z,51.30
2023-06-05T11:41:09.971Z,50.81
2023-06-05T11:43:49.448Z,50.60
2023-06-05T11:46:23.567Z,50.77
2023-06-05T11:48:57.726Z,51.09
2023-06-05T11:51:35.954Z,50.99
2023-06-05T11:54:15.885Z,51.06
2023-06-05T11:56:51.811Z,51.04
2023-06-05T11:59:20.955Z,50.41
2023-06-05T12:01:51.808Z,50.26
2023-06-05T12:04:25.887Z,50.37
2023-06-05T12:06:56.897Z,50.26
2023-06-05T12:09:31.288Z,50.15
2023-06-05T12:12:08.866Z,51.11
2023-06-05T12:14:42.772Z,51.32
2023-06-05T12:17:14.887Z,51.85
2023-06-05T12:19:53.295Z,51.13
2023-06-05T12:22:25.142Z,51.04
2023-06-05T12:25:01.426Z,51.64
2023-06-05T12:27:38.716Z,52.12
2023-06-05T12:30:08.678Z,52.29
2023-06-05T12:32:40.421Z,52.21
2023-06-05T12:35:28.881Z,51.98
2023-06-05T12:38:01.579Z,52.54
2023-06-05T12:40:36.790Z,52.39
2023-06-05T12:43:04.879Z,52.31
2023-06-05T12:45:39.080Z,52.21
2023-06-05T12:48:08.396Z,51.98
2023-06-05T12:50:42.512Z,52.35
2023-06-05T12:53:14.356Z,52.36
2023-06-05T12:55:43.557Z,52.12
2023-06-05T12:58:10.822Z,53.34
2023-06-05T13:00:40.124Z,52.75
2023-06-05T13:03:07.062Z,53.22
2023-06-05T13:05:34.032Z,53.23
2023-06-05T13:08:04.345Z,53.08
2023-06-05T13:10:31.188Z,53.26
2023-06-05T13:13:02.786Z,53.21
2023-06-05T13:15:29.615Z,53.36
2023-06-05T13:18:01.266Z,53.46
2023-06-05T13:20:35.407Z,52.96
2023-06-05T13:23:02.707Z,53.44
2023-06-05T13:25:29.617Z,53.01
2023-06-05T13:27:58.808Z,53.36
2023-06-05T13:30:25.800Z,53.10
2023-06-05T13:32:55.370Z,53.42
2023-06-05T13:35:22.350Z,52.42
2023-06-05T13:37:52.172Z,52.66
2023-06-05T13:40:21.265Z,52.54
2023-06-05T13:42:52.638Z,52.04
2023-06-05T13:45:21.980Z,52.62
2023-06-05T13:47:55.911Z,52.28
2023-06-05T13:50:25.265Z,52.63
2023-06-05T13:52:57.371Z,52.10
2023-06-05T13:55:24.548Z,52.44
2023-06-05T13:57:51.825Z,52.87
2023-06-05T14:00:21.756Z,53.07
2023-06-05T14:02:53.509Z,52.88
2023-06-05T14:05:23.195Z,53.14
2023-06-05T14:07:57.952Z,53.37
2023-06-05T14:10:26.291Z,52.68
2023-06-05T14:12:58.029Z,52.80
2023-06-05T14:15:27.461Z,53.20
2023-06-05T14:17:56.902Z,53.23
2023-06-05T14:20:28.177Z,52.94
2023-06-05T14:22:58.910Z,52.73
2023-06-05T14:25:31.190Z,52.87
2023-06-05T14:28:05.064Z,53.75
2023-06-05T14:30:39.273Z,53.37
2023-06-05T14:33:06.133Z,53.35
2023-06-05T14:35:35.224Z,53.40
2023-06-05T14:38:06.998Z,53.42
2023-06-05T14:40:36.213Z,53.16
2023-06-05T14:43:12.833Z,53.48
2023-06-05T14:45:44.947Z,53.58
2023-06-05T14:48:14.780Z,53.40
2023-06-05T14:50:44.300Z,53.11
2023-06-05T14:53:14.178Z,53.18
2023-06-05T14:55:43.382Z,53.52
2023-06-05T14:58:12.746Z,53.61
2023-06-05T15:00:41.964Z,53.39
2023-06-05T15:03:12.343Z,53.02
2023-06-05T15:05:43.929Z,53.38
2023-06-05T15:08:16.063Z,53.53
2023-06-05T15:10:47.467Z,53.24
2023-06-05T15:13:17.068Z,52.84
2023-06-05T15:15:44.024Z,53.09
2023-06-05T15:18:10.958Z,53.23
2023-06-05T15:20:40.199Z,53.22
2023-06-05T15:23:16.366Z,53.22
2023-06-05T15:25:49.163Z,53.38
2023-06-05T15:28:23.072Z,53.58
2023-06-05T15:30:55.143Z,54.02
2023-06-05T15:33:22.179Z,53.75
2023-06-05T15:35:53.624Z,53.19
2023-06-05T15:38:25.185Z,53.74
2023-06-05T15:40:56.024Z,53.75
2023-06-05T15:43:25.451Z,53.32
2023-06-05T15:45:59.734Z,53.35
2023-06-05T15:48:31.556Z,53.69
2023-06-05T15:50:58.733Z,53.92
2023-06-05T15:53:35.169Z,53.58
2023-06-05T15:56:14.475Z,53.88
2023-06-05T15:58:41.478Z,53.95
2023-06-05T16:01:10.959Z,53.43
2023-06-05T16:03:43.507Z,54.37
2023-06-05T16:06:12.769Z,54.38
2023-06-05T16:08:45.087Z,54.58
2023-06-05T16:11:14.450Z,54.65
2023-06-05T16:13:46.116Z,54.36
2023-06-05T16:16:15.925Z,54.51
2023-06-05T16:18:47.462Z,54.74
2023-06-05T16:21:14.314Z,54.73
2023-06-05T16:23:41.121Z,54.28
2023-06-05T16:26:10.193Z,53.98
2023-06-05T16:28:41.854Z,54.04
2023-06-05T16:31:12.069Z,54.09
2023-06-05T16:33:41.562Z,54.20
2023-06-05T16:36:11.735Z,54.06
2023-06-05T16:38:41.198Z,54.36
2023-06-05T16:41:12.490Z,53.93
2023-06-05T16:43:41.595Z,53.98
2023-06-05T16:46:10.904Z,54.25
2023-06-05T16:48:46.675Z,53.88
2023-06-05T16:51:13.678Z,53.46
2023-06-05T16:53:45.292Z,53.57
2023-06-05T16:56:14.376Z,53.52
2023-06-05T16:58:49.076Z,53.84
2023-06-05T17:01:20.120Z,54.08
2023-06-05T17:03:53.159Z,54.27
2023-06-05T17:06:25.647Z,54.49
2023-06-05T17:08:59.178Z,55.02
2023-06-05T17:11:33.270Z,55.27
2023-06-05T17:14:04.781Z,55.62
2023-06-05T17:16:38.522Z,55.38
2023-06-05T17:19:05.728Z,55.54
2023-06-05T17:21:38.161Z,56.32
2023-06-05T17:24:07.437Z,56.02
2023-06-05T17:26:39.141Z,56.57
2023-06-05T17:29:10.864Z,56.23
2023-06-05T17:31:40.193Z,56.71
2023-06-05T17:34:07.132Z,56.94
2023-06-05T17:36:36.384Z,57.02
2023-06-05T17:39:08.207Z,56.82
2023-06-05T17:41:39.953Z,57.09
2023-06-05T17:44:09.073Z,56.81
2023-06-05T17:46:41.410Z,56.68
2023-06-05T17:49:10.750Z,56.47
2023-06-05T17:51:44.727Z,56.92
2023-06-05T17:54:20.805Z,57.18
2023-06-05T17:56:51.480Z,57.26
2023-06-05T17:59:20.886Z,57.66
2023-06-05T18:01:55.508Z,57.44
2023-06-05T18:04:27.580Z,57.66
2023-06-05T18:06:59.291Z,57.97
2023-06-05T18:09:26.285Z,57.92
2023-06-05T18:11:55.460Z,58.06
2023-06-05T18:14:26.954Z,57.95
2023-06-05T18:16:56.165Z,57.83
2023-06-05T18:19:23.320Z,57.82
2023-06-05T18:21:59.413Z,58.41
2023-06-05T18:24:28.595Z,58.13
2023-06-05T18:26:57.782Z,58.34
2023-06-05T18:29:26.863Z,58.41
2023-06-05T18:31:56.067Z,58.60
2023-06-05T18:34:22.995Z,58.64
2023-06-05T18:36:55.167Z,58.62
2023-06-05T18:39:24.400Z,58.37
2023-06-05T18:41:56.128Z,58.40
2023-06-05T18:44:23.929Z,58.93
2023-06-05T18:46:53.675Z,59.14
2023-06-05T18:49:25.272Z,58.51
2023-06-05T18:51:55.670Z,58.61
2023-06-05T18:54:24.834Z,58.65
2023-06-05T18:56:53.812Z,58.68
2023-06-05T18:59:26.126Z,58.70
2023-06-05T19:01:55.567Z,59.16
2023-06-05T19:04:24.738Z,59.32
2023-06-05T19:06:58.906Z,59.17
2023-06-05T19:09:33.579Z,59.23
2023-06-05T19:12:00.470Z,59.48
2023-06-05T19:14:32.122Z,59.82
2023-06-05T19:17:01.187Z,60.04
2023-06-05T19:19:35.155Z,60.07
2023-06-05T19:22:09.366Z,60.87
2023-06-05T19:24:36.298Z,60.95
2023-06-05T19:27:05.414Z,61.32
2023-06-05T19:29:34.924Z,60.79
2023-06-05T19:32:05.249Z,61.07
2023-06-05T19:34:34.760Z,61.21
2023-06-05T19:37:01.798Z,61.95
2023-06-05T19:39:31.536Z,62.38
2023-06-05T19:42:01.014Z,62.10
2023-06-05T19:44:32.851Z,62.54
2023-06-05T19:47:04.641Z,62.57
2023-06-05T19:49:33.766Z,62.76
2023-06-05T19:52:03.373Z,63.17
2023-06-05T19:54:35.530Z,63.08
2023-06-05T19:57:07.774Z,63.84
2023-06-05T19:59:39.568Z,63.91
2023-06-05T20:02:12.350Z,64.12
2023-06-05T20:04:42.852Z,64.10
2023-06-05T20:07:13.364Z,64.43
2023-06-05T20:09:42.469Z,64.15
2023-06-05T20:12:12.050Z,64.31
2023-06-05T20:14:43.964Z,64.54
2023-06-05T20:17:10.988Z,64.57
2023-06-05T20:19:40.570Z,64.62
2023-06-05T20:22:12.148Z,64.88
2023-06-05T20:24:44.267Z,65.24
2023-06-05T20:27:15.663Z,65.57
2023-06-05T20:29:50.297Z,65.60
2023-06-05T20:32:19.416Z,65.37
2023-06-05T20:34:50.906Z,65.81
2023-06-05T20:37:31.593Z,65.54
2023-06-05T20:40:06.603Z,65.54
2023-06-05T20:42:38.863Z,65.77
2023-06-05T20:45:08.944Z,65.98
2023-06-05T20:47:40.469Z,66.04
2023-06-05T20:50:10.107Z,66.24
2023-06-05T20:52:41.753Z,66.20
2023-06-05T20:55:13.866Z,66.34
2023-06-05T20:57:45.648Z,66.52
2023-06-05T21:00:18.400Z,66.13
2023-06-05T21:02:52.351Z,66.67
2023-06-05T21:05:19.475Z,66.56
2023-06-05T21:07:46.569Z,66.79
2023-06-05T21:10:18.889Z,66.82
2023-06-05T21:12:50.577Z,66.78
2023-06-05T21:15:19.829Z,66.91
2023-06-05T21:17:51.886Z,66.72
2023-06-05T21:20:21.307Z,66.95
2023-06-05T21:22:50.477Z,67.04
2023-06-05T21:25:20.057Z,67.21
2023-06-05T21:27:52.339Z,66.94
2023-06-05T21:30:21.583Z,67.33
2023-06-05T21:32:55.549Z,67.45
2023-06-05T21:35:22.585Z,67.60
2023-06-05T21:37:54.396Z,67.53
2023-06-05T21:40:23.585Z,68.07
2023-06-05T21:42:50.382Z,68.00
2023-06-05T21:45:22.056Z,68.10
2023-06-05T21:47:53.641Z,68.23
2023-06-05T21:50:22.659Z,68.41
2023-06-05T21:52:54.173Z,68.52
2023-06-05T21:55:23.498Z,68.53
2023-06-05T21:57:57.892Z,68.38
2023-06-05T22:00:29.497Z,68.63
2023-06-05T22:03:01.312Z,68.76
2023-06-05T22:05:30.925Z,68.77
2023-06-05T22:07:58.419Z,68.99
2023-06-05T22:10:25.318Z,68.94
2023-06-05T22:12:57.047Z,69.22
2023-06-05T22:15:26.291Z,69.31
2023-06-05T22:17:55.710Z,69.16
2023-06-05T22:20:27.203Z,69.54
2023-06-05T22:22:58.575Z,69.66
2023-06-05T22:25:43.354Z,69.63
2023-06-05T22:28:16.008Z,69.50
2023-06-05T22:30:45.371Z,69.94
2023-06-05T22:33:18.842Z,70.01
2023-06-05T22:35:51.291Z,70.17
2023-06-05T22:38:26.988Z,70.44
2023-06-05T22:40:58.428Z,70.38
2023-06-05T22:43:32.502Z,70.66
2023-06-05T22:45:59.812Z,70.79
2023-06-05T22:48:34.513Z,71.30
2023-06-05T22:51:01.652Z,71.32
2023-06-05T22:53:37.081Z,71.81
2023-06-05T22:56:04.280Z,100.00
2023-06-05T22:58:33.469Z,100.00
2023-06-05T23:01:01.358Z,71.81
2023-06-05T23:03:34.711Z,72.41
2023-06-05T23:06:02.981Z,72.75
2023-06-05T23:08:31.005Z,72.60
2023-06-05T23:11:00.841Z,72.59
2023-06-05T23:13:27.709Z,72.69
2023-06-05T23:15:56.908Z,73.10
2023-06-05T23:18:23.774Z,73.08
2023-06-05T23:20:52.864Z,73.10
2023-06-05T23:23:19.695Z,73.14
2023-06-05T23:25:46.613Z,73.17
2023-06-05T23:28:13.512Z,73.45
2023-06-05T23:30:40.876Z,55.93
2023-06-05T23:33:10.355Z,73.73
2023-06-05T23:35:37.171Z,73.58
2023-06-05T23:38:06.567Z,73.91
2023-06-05T23:40:35.622Z,74.00
2023-06-05T23:43:09.338Z,73.89
2023-06-05T23:45:41.802Z,74.13
2023-06-05T23:48:10.903Z,73.95
2023-06-05T23:50:40.044Z,73.71
2023-06-05T23:53:13.245Z,74.03
2023-06-05T23:55:44.729Z,73.89
2023-06-05T23:58:14.904Z,73.80
